Language: 


Des rapports , des résumés tant et plus, au choix de chacun....


Données Historiques de Météogheer
Journalier Rapport pour Mars 14, 2017 Unitée:  Les deux    Impériale   Métrique
Suivant Jour »
Journalier Hebdomadaire Mensuel Annuel Sur mesure
  Max: Min: Moyenne:
Température: 56.3 °F /  13.5 °C 32 °F /  0.0 °C 46.8 °F /  8.2 °C
Point de rosée: 52.5 °F /  11.4 °C 35.2 °F /  1.8 °C 45.1 °F /  7.3 °C
Humidité: 98% 0% 94%
Vent: 17mph /  27.4km/h - 6.5mph /  10.5km/h
Rafales: 17mph /  27.4km/h - -
Vent- - WSW
Pression: 30.5 in /  1033.1 hPa 0 in /  0.0 hPa -
Pluie: 0 in /  0.0 mm    
Historical Graphs
 
 
Données tabulaires pour Mars 14, 2017
Heure Température Point de rosée Pression Vent Vent Rafales Humidité Pluie Taux (Horaire) Conditions
00:02 37.6 °F /  3.1 °C 36.3 °F /  2.4 °C 30.4in /  1031.0hPa Calm     95% 0in /  0.0mm
00:07 37.6 °F /  3.1 °C 36.7 °F /  2.6 °C 30.4in /  1031.0hPa Calm     96% 0in /  0.0mm
00:12 37.6 °F /  3.1 °C 36.3 °F /  2.4 °C 30.4in /  1031.0hPa Calm     96% 0in /  0.0mm
00:17 37.6 °F /  3.1 °C 36.3 °F /  2.4 °C 30.4in /  1031.0hPa Calm     96% 0in /  0.0mm
00:22 37.6 °F /  3.1 °C 36.3 °F /  2.4 °C 30.4in /  1031.0hPa Calm     96% 0in /  0.0mm
00:27 37.2 °F /  2.9 °C 36.3 °F /  2.4 °C 30.4in /  1031.0hPa Calm     96% 0in /  0.0mm
00:32 37.6 °F /  3.1 °C 36.3 °F /  2.4 °C 30.4in /  1031.0hPa Calm     96% 0in /  0.0mm
00:37 37.6 °F /  3.1 °C 36.3 °F /  2.4 °C 30.4in /  1031.0hPa Calm     96% 0in /  0.0mm
00:42 37.2 °F /  2.9 °C 36.3 °F /  2.4 °C 30.4in /  1031.0hPa Calm     96% 0in /  0.0mm
00:47 37 °F /  2.8 °C 36.3 °F /  2.4 °C 30.4in /  1031.0hPa West 2mph /  3.2km/h 2.2mph /  3.5km/h 97% 0in /  0.0mm
00:52 36.9 °F /  2.7 °C 36.1 °F /  2.3 °C 30.4in /  1031.0hPa Calm   2.2mph /  3.5km/h 97% 0in /  0.0mm
00:57 36.9 °F /  2.7 °C 35.8 °F /  2.1 °C 30.4in /  1031.0hPa Calm   2.2mph /  3.5km/h 96% 0in /  0.0mm
01:02 36.7 °F /  2.6 °C 35.6 °F /  2.0 °C 30.4in /  1031.0hPa Calm     96% 0in /  0.0mm
01:07 36.3 °F /  2.4 °C 35.4 °F /  1.9 °C 30.4in /  1031.0hPa Calm     96% 0in /  0.0mm
01:12 36.1 °F /  2.3 °C 35.4 °F /  1.9 °C 30.4in /  1031.0hPa Calm     97% 0in /  0.0mm
01:17 36.1 °F /  2.3 °C 35.4 °F /  1.9 °C 30.4in /  1031.0hPa West 1.6mph /  2.6km/h 2mph /  3.2km/h 97% 0in /  0.0mm
01:22 36.1 °F /  2.3 °C 35.4 °F /  1.9 °C 30.4in /  1031.0hPa Calm   2mph /  3.2km/h 97% 0in /  0.0mm
01:27 36.1 °F /  2.3 °C 35.4 °F /  1.9 °C 30.4in /  1031.0hPa West 1.6mph /  2.6km/h 2.9mph /  4.7km/h 97% 0in /  0.0mm
01:32 36.1 °F /  2.3 °C 35.4 °F /  1.9 °C 30.4in /  1031.0hPa West 2.5mph /  4.0km/h 3.6mph /  5.8km/h 97% 0in /  0.0mm
01:37 36.1 °F /  2.3 °C 35.2 °F /  1.8 °C 30.4in /  1031.0hPa WSW 1.3mph /  2.1km/h 3.6mph /  5.8km/h 97% 0in /  0.0mm
01:42 36.1 °F /  2.3 °C 35.2 °F /  1.8 °C 30.4in /  1031.0hPa West 2.5mph /  4.0km/h 3.1mph /  5.0km/h 97% 0in /  0.0mm
01:47 36.3 °F /  2.4 °C 36 °F /  2.2 °C 30.4in /  1031.0hPa West 2.5mph /  4.0km/h 3.1mph /  5.0km/h 98% 0in /  0.0mm
01:52 36.7 °F /  2.6 °C 36.1 °F /  2.3 °C 30.4in /  1031.0hPa West 1.3mph /  2.1km/h 3.8mph /  6.1km/h 98% 0in /  0.0mm
01:57 36.9 °F /  2.7 °C 36.3 °F /  2.4 °C 30.4in /  1031.0hPa West 3.6mph /  5.8km/h 3.8mph /  6.1km/h 98% 0in /  0.0mm
02:02 37 °F /  2.8 °C 36.7 °F /  2.6 °C 0in /  0.0hPa West 3.6mph /  5.8km/h 3.6mph /  5.8km/h 98% 0in /  0.0mm
02:07 37.6 °F /  3.1 °C 37 °F /  2.8 °C 30.4in /  1031.0hPa West 3.4mph /  5.5km/h 4mph /  6.4km/h 98% 0in /  0.0mm
02:12 37.6 °F /  3.1 °C 37 °F /  2.8 °C 30.4in /  1031.0hPa West 2.9mph /  4.7km/h 4mph /  6.4km/h 98% 0in /  0.0mm
02:17 37.8 °F /  3.2 °C 37.2 °F /  2.9 °C 30.4in /  1031.0hPa West 3.8mph /  6.1km/h 4.3mph /  6.9km/h 98% 0in /  0.0mm
02:22 37.6 °F /  3.1 °C 37 °F /  2.8 °C 30.4in /  1030.0hPa West 2.5mph /  4.0km/h 4.3mph /  6.9km/h 98% 0in /  0.0mm
02:27 37.8 °F /  3.2 °C 37.2 °F /  2.9 °C 30.4in /  1030.0hPa West 3.1mph /  5.0km/h 4.3mph /  6.9km/h 98% 0in /  0.0mm
02:32 37.8 °F /  3.2 °C 37.2 °F /  2.9 °C 30.4in /  1030.0hPa West 2.5mph /  4.0km/h 4.3mph /  6.9km/h 98% 0in /  0.0mm
02:38 37.9 °F /  3.3 °C 37.6 °F /  3.1 °C 30.4in /  1031.0hPa West 3.8mph /  6.1km/h 4.3mph /  6.9km/h 98% 0in /  0.0mm
02:43 37.9 °F /  3.3 °C 37.6 °F /  3.1 °C 30.4in /  1031.0hPa West 3.4mph /  5.5km/h 4.3mph /  6.9km/h 98% 0in /  0.0mm
02:48 37.9 °F /  3.3 °C 37.6 °F /  3.1 °C 30.4in /  1031.0hPa SW 3.1mph /  5.0km/h 4.7mph /  7.6km/h 98% 0in /  0.0mm
02:53 37.8 °F /  3.2 °C 37.2 °F /  2.9 °C 30.4in /  1031.0hPa West 3.1mph /  5.0km/h 4.7mph /  7.6km/h 98% 0in /  0.0mm
02:58 37.6 °F /  3.1 °C 36.7 °F /  2.6 °C 30.4in /  1031.0hPa West 3.8mph /  6.1km/h 4mph /  6.4km/h 97% 0in /  0.0mm
03:03 37.6 °F /  3.1 °C 37 °F /  2.8 °C 30.4in /  1031.0hPa WSW 2.9mph /  4.7km/h 4mph /  6.4km/h 98% 0in /  0.0mm
03:08 37.6 °F /  3.1 °C 37 °F /  2.8 °C 30.4in /  1031.0hPa West 3.8mph /  6.1km/h 4mph /  6.4km/h 98% 0in /  0.0mm
03:13 37.6 °F /  3.1 °C 37 °F /  2.8 °C 30.5in /  1032.1hPa West 3.6mph /  5.8km/h 4mph /  6.4km/h 98% 0in /  0.0mm
03:18 36.9 °F /  2.7 °C 36.3 °F /  2.4 °C 30.5in /  1032.1hPa West 2.5mph /  4.0km/h 4mph /  6.4km/h 98% 0in /  0.0mm
03:23 37 °F /  2.8 °C 36.7 °F /  2.6 °C 30.5in /  1032.1hPa West 3.6mph /  5.8km/h 4mph /  6.4km/h 98% 0in /  0.0mm
03:28 37.2 °F /  2.9 °C 36.9 °F /  2.7 °C 30.5in /  1032.1hPa WSW 3.4mph /  5.5km/h 4.3mph /  6.9km/h 98% 0in /  0.0mm
03:33 37.2 °F /  2.9 °C 36.9 °F /  2.7 °C 30.5in /  1032.1hPa West 2.7mph /  4.3km/h 4.3mph /  6.9km/h 98% 0in /  0.0mm
03:38 37.8 °F /  3.2 °C 37.2 °F /  2.9 °C 30.5in /  1032.1hPa WSW 3.1mph /  5.0km/h 4mph /  6.4km/h 98% 0in /  0.0mm
03:43 37.9 °F /  3.3 °C 37.6 °F /  3.1 °C 30.4in /  1031.0hPa West 4.9mph /  7.9km/h 4.9mph /  7.9km/h 98% 0in /  0.0mm
03:48 37.9 °F /  3.3 °C 37.6 °F /  3.1 °C 30.4in /  1031.0hPa WSW 4mph /  6.4km/h 4.9mph /  7.9km/h 98% 0in /  0.0mm
03:53 37.6 °F /  3.1 °C 37 °F /  2.8 °C 30.4in /  1031.0hPa WSW 3.4mph /  5.5km/h 4.9mph /  7.9km/h 98% 0in /  0.0mm
03:58 37.2 °F /  2.9 °C 36.9 °F /  2.7 °C 30.4in /  1031.0hPa SW 3.8mph /  6.1km/h 4.9mph /  7.9km/h 98% 0in /  0.0mm
04:03 37.8 °F /  3.2 °C 37.2 °F /  2.9 °C 30.4in /  1031.0hPa WSW 5.4mph /  8.7km/h 5.4mph /  8.7km/h 98% 0in /  0.0mm
04:08 38.5 °F /  3.6 °C 37.8 °F /  3.2 °C 30.4in /  1031.0hPa West 6.3mph /  10.1km/h 6.3mph /  10.1km/h 98% 0in /  0.0mm
04:13 38.5 °F /  3.6 °C 37.9 °F /  3.3 °C 30.4in /  1031.0hPa West 3.8mph /  6.1km/h 6.5mph /  10.5km/h 98% 0in /  0.0mm
04:18 38.7 °F /  3.7 °C 38.1 °F /  3.4 °C 30.4in /  1031.0hPa WSW 3.1mph /  5.0km/h 6.5mph /  10.5km/h 98% 0in /  0.0mm
04:23 38.5 °F /  3.6 °C 37.9 °F /  3.3 °C 30.4in /  1030.0hPa WSW 3.6mph /  5.8km/h 5.4mph /  8.7km/h 98% 0in /  0.0mm
04:28 37.8 °F /  3.2 °C 37.2 °F /  2.9 °C 30.4in /  1030.0hPa WSW 3.6mph /  5.8km/h 5.4mph /  8.7km/h 98% 0in /  0.0mm
04:33 37.2 °F /  2.9 °C 36.9 °F /  2.7 °C 30.4in /  1030.0hPa WSW 4mph /  6.4km/h 4.3mph /  6.9km/h 98% 0in /  0.0mm
04:38 37.2 °F /  2.9 °C 36.9 °F /  2.7 °C 30.4in /  1031.0hPa WSW 4.3mph /  6.9km/h 4.5mph /  7.2km/h 98% 0in /  0.0mm
04:43 37.2 °F /  2.9 °C 36.9 °F /  2.7 °C 30.4in /  1031.0hPa WSW 6mph /  9.7km/h 6mph /  9.7km/h 98% 0in /  0.0mm
04:48 37.8 °F /  3.2 °C 37.2 °F /  2.9 °C 30.4in /  1031.0hPa WSW 4mph /  6.4km/h 6mph /  9.7km/h 98% 0in /  0.0mm
04:53 38.5 °F /  3.6 °C 37.8 °F /  3.2 °C 30.4in /  1031.0hPa WSW 4.7mph /  7.6km/h 6.5mph /  10.5km/h 98% 0in /  0.0mm
04:58 38.7 °F /  3.7 °C 38.1 °F /  3.4 °C 30.4in /  1031.0hPa WSW 6.3mph /  10.1km/h 6.5mph /  10.5km/h 98% 0in /  0.0mm
05:03 39 °F /  3.9 °C 38.5 °F /  3.6 °C 30.4in /  1031.0hPa West 7.8mph /  12.6km/h 7.8mph /  12.6km/h 98% 0in /  0.0mm
05:08 39.4 °F /  4.1 °C 38.8 °F /  3.8 °C 30.4in /  1031.0hPa WSW 7.8mph /  12.6km/h 8.7mph /  14.0km/h 98% 0in /  0.0mm
05:13 39.7 °F /  4.3 °C 39.2 °F /  4.0 °C 30.4in /  1031.0hPa WSW 6.3mph /  10.1km/h 10.1mph /  16.3km/h 98% 0in /  0.0mm
05:18 40.1 °F /  4.5 °C 39.6 °F /  4.2 °C 30.4in /  1031.0hPa WSW 7.4mph /  11.9km/h 10.3mph /  16.6km/h 98% 0in /  0.0mm
05:23 40.3 °F /  4.6 °C 39.7 °F /  4.3 °C 30.4in /  1031.0hPa WSW 10.5mph /  16.9km/h 10.7mph /  17.2km/h 98% 0in /  0.0mm
05:28 40.5 °F /  4.7 °C 39.9 °F /  4.4 °C 30.4in /  1031.0hPa WSW 8.5mph /  13.7km/h 11mph /  17.7km/h 98% 0in /  0.0mm
05:33 40.6 °F /  4.8 °C 40.1 °F /  4.5 °C 30.4in /  1031.0hPa WSW 6.5mph /  10.5km/h 11mph /  17.7km/h 98% 0in /  0.0mm
05:38 40.8 °F /  4.9 °C 40.3 °F /  4.6 °C 30.4in /  1031.0hPa WSW 8.9mph /  14.3km/h 12.1mph /  19.5km/h 98% 0in /  0.0mm
05:43 41 °F /  5.0 °C 40.5 °F /  4.7 °C 30.4in /  1031.0hPa WSW 5.4mph /  8.7km/h 12.1mph /  19.5km/h 98% 0in /  0.0mm
05:48 41.2 °F /  5.1 °C 40.6 °F /  4.8 °C 30.4in /  1031.0hPa WSW 6.3mph /  10.1km/h 8.5mph /  13.7km/h 98% 0in /  0.0mm
05:53 41.4 °F /  5.2 °C 40.8 °F /  4.9 °C 30.4in /  1031.0hPa WSW 7.8mph /  12.6km/h 10.5mph /  16.9km/h 98% 0in /  0.0mm
05:58 41.5 °F /  5.3 °C 41 °F /  5.0 °C 30.4in /  1031.0hPa West 8.5mph /  13.7km/h 10.5mph /  16.9km/h 98% 0in /  0.0mm
06:03 41.7 °F /  5.4 °C 41.2 °F /  5.1 °C 30.4in /  1031.0hPa WSW 10.1mph /  16.3km/h 10.1mph /  16.3km/h 98% 0in /  0.0mm
06:08 41.9 °F /  5.5 °C 41.4 °F /  5.2 °C 30.4in /  1030.0hPa WSW 10.3mph /  16.6km/h 10.5mph /  16.9km/h 98% 0in /  0.0mm
06:13 42.1 °F /  5.6 °C 41.5 °F /  5.3 °C 30.4in /  1030.0hPa WSW 6.5mph /  10.5km/h 10.5mph /  16.9km/h 98% 0in /  0.0mm
06:14 42.1 °F /  5.6 °C 41.5 °F /  5.3 °C 30.4in /  1030.0hPa WSW 8.7mph /  14.0km/h 10.3mph /  16.6km/h 98% 0in /  0.0mm
06:19 42.3 °F /  5.7 °C 41.7 °F /  5.4 °C 30.4in /  1030.0hPa West 8.1mph /  13.0km/h 9.4mph /  15.1km/h 98% 0in /  0.0mm
06:24 42.4 °F /  5.8 °C 41.9 °F /  5.5 °C 30.4in /  1031.0hPa WSW 9.8mph /  15.8km/h 10.5mph /  16.9km/h 98% 0in /  0.0mm
06:29 42.6 °F /  5.9 °C 42.1 °F /  5.6 °C 30.4in /  1031.0hPa WSW 6.3mph /  10.1km/h 10.5mph /  16.9km/h 98% 0in /  0.0mm
06:34 42.8 °F /  6.0 °C 42.3 °F /  5.7 °C 30.4in /  1031.0hPa WSW 5.4mph /  8.7km/h 11mph /  17.7km/h 98% 0in /  0.0mm
06:39 42.8 °F /  6.0 °C 42.3 °F /  5.7 °C 30.4in /  1031.0hPa West 6.5mph /  10.5km/h 11mph /  17.7km/h 98% 0in /  0.0mm
06:44 42.8 °F /  6.0 °C 42.3 °F /  5.7 °C 30.4in /  1031.0hPa West 7.8mph /  12.6km/h 10.7mph /  17.2km/h 98% 0in /  0.0mm
06:49 43.2 °F /  6.2 °C 42.6 °F /  5.9 °C 30.4in /  1031.0hPa WSW 5.4mph /  8.7km/h 10.7mph /  17.2km/h 98% 0in /  0.0mm
06:54 43.2 °F /  6.2 °C 42.6 °F /  5.9 °C 30.4in /  1031.0hPa WSW 8.9mph /  14.3km/h 11mph /  17.7km/h 98% 0in /  0.0mm
06:59 43.3 °F /  6.3 °C 42.8 °F /  6.0 °C 30.4in /  1031.0hPa WSW 8.7mph /  14.0km/h 11mph /  17.7km/h 98% 0in /  0.0mm
07:04 43.5 °F /  6.4 °C 43 °F /  6.1 °C 30.4in /  1031.0hPa WSW 7.6mph /  12.2km/h 11mph /  17.7km/h 98% 0in /  0.0mm
07:09 43.5 °F /  6.4 °C 43 °F /  6.1 °C 30.4in /  1031.0hPa WSW 8.5mph /  13.7km/h 10.3mph /  16.6km/h 98% 0in /  0.0mm
07:14 43.5 °F /  6.4 °C 43.2 °F /  6.2 °C 30.4in /  1031.0hPa WSW 9.4mph /  15.1km/h 10.3mph /  16.6km/h 98% 0in /  0.0mm
07:19 43.9 °F /  6.6 °C 43.3 °F /  6.3 °C 30.4in /  1031.0hPa WSW 8.7mph /  14.0km/h 10.3mph /  16.6km/h 98% 0in /  0.0mm
07:24 43.9 °F /  6.6 °C 43.3 °F /  6.3 °C 30.4in /  1031.0hPa West 11mph /  17.7km/h 12.1mph /  19.5km/h 98% 0in /  0.0mm
07:29 44.1 °F /  6.7 °C 43.5 °F /  6.4 °C 30.4in /  1031.0hPa WSW 10.7mph /  17.2km/h 12.1mph /  19.5km/h 98% 0in /  0.0mm
07:34 44.2 °F /  6.8 °C 43.5 °F /  6.4 °C 30.4in /  1031.0hPa WSW 8.5mph /  13.7km/h 12.1mph /  19.5km/h 98% 0in /  0.0mm
07:39 44.2 °F /  6.8 °C 43.5 °F /  6.4 °C 30.4in /  1031.0hPa WSW 6.3mph /  10.1km/h 12.1mph /  19.5km/h 98% 0in /  0.0mm
07:44 44.2 °F /  6.8 °C 43.5 °F /  6.4 °C 30.4in /  1031.0hPa WSW 9.2mph /  14.8km/h 10.3mph /  16.6km/h 98% 0in /  0.0mm
07:49 44.2 °F /  6.8 °C 43.9 °F /  6.6 °C 30.4in /  1031.0hPa WSW 8.5mph /  13.7km/h 12.5mph /  20.1km/h 98% 0in /  0.0mm
07:54 44.2 °F /  6.8 °C 43.9 °F /  6.6 °C 30.4in /  1031.0hPa WSW 10.5mph /  16.9km/h 12.5mph /  20.1km/h 98% 0in /  0.0mm
07:59 44.2 °F /  6.8 °C 43.9 °F /  6.6 °C 30.4in /  1031.0hPa WSW 10.5mph /  16.9km/h 11.9mph /  19.1km/h 98% 0in /  0.0mm
08:04 44.2 °F /  6.8 °C 43.9 °F /  6.6 °C 30.4in /  1031.0hPa WSW 6.5mph /  10.5km/h 12.8mph /  20.6km/h 98% 0in /  0.0mm
08:09 44.2 °F /  6.8 °C 43.9 °F /  6.6 °C 30.4in /  1031.0hPa WSW 7.6mph /  12.2km/h 12.8mph /  20.6km/h 98% 0in /  0.0mm
08:14 44.4 °F /  6.9 °C 44.1 °F /  6.7 °C 30.4in /  1031.0hPa WSW 9.8mph /  15.8km/h 10.7mph /  17.2km/h 98% 0in /  0.0mm
08:19 44.8 °F /  7.1 °C 44.2 °F /  6.8 °C 30.4in /  1031.0hPa WSW 7.8mph /  12.6km/h 10.7mph /  17.2km/h 98% 0in /  0.0mm
08:24 45 °F /  7.2 °C 44.2 °F /  6.8 °C 30.4in /  1031.0hPa WSW 7.8mph /  12.6km/h 9.8mph /  15.8km/h 98% 0in /  0.0mm
08:29 45.1 °F /  7.3 °C 44.4 °F /  6.9 °C 30.4in /  1031.0hPa WSW 6mph /  9.7km/h 8.5mph /  13.7km/h 98% 0in /  0.0mm
08:34 45.1 °F /  7.3 °C 44.4 °F /  6.9 °C 30.4in /  1031.0hPa WSW 5.8mph /  9.3km/h 8.9mph /  14.3km/h 98% 0in /  0.0mm
08:39 45.1 °F /  7.3 °C 44.8 °F /  7.1 °C 30.4in /  1031.0hPa WSW 5.8mph /  9.3km/h 8.9mph /  14.3km/h 98% 0in /  0.0mm
08:44 45.1 °F /  7.3 °C 44.8 °F /  7.1 °C 30.4in /  1031.0hPa SW 4.3mph /  6.9km/h 6.9mph /  11.1km/h 98% 0in /  0.0mm
08:49 45.3 °F /  7.4 °C 45 °F /  7.2 °C 30.4in /  1031.0hPa West 5.8mph /  9.3km/h 6.5mph /  10.5km/h 98% 0in /  0.0mm
08:54 45.3 °F /  7.4 °C 45 °F /  7.2 °C 30.4in /  1031.0hPa West 7.4mph /  11.9km/h 7.8mph /  12.6km/h 98% 0in /  0.0mm
12:17 32 °F /  0.0 °C 51.6 °F /  10.9 °C 0in /  0.0hPa WSW 9.6mph /  15.4km/h 12.3mph /  19.8km/h 0% 0in /  0.0mm
12:22 53.2 °F /  11.8 °C 51.8 °F /  11.0 °C 30.4in /  1031.0hPa WSW 12.5mph /  20.1km/h 12.8mph /  20.6km/h 95% 0in /  0.0mm
12:27 53.2 °F /  11.8 °C 52 °F /  11.1 °C 30.5in /  1032.1hPa WSW 8.5mph /  13.7km/h 12.8mph /  20.6km/h 95% 0in /  0.0mm
12:32 53.1 °F /  11.7 °C 52 °F /  11.1 °C 30.5in /  1032.1hPa WSW 9.8mph /  15.8km/h 12.5mph /  20.1km/h 96% 0in /  0.0mm
12:37 53.1 °F /  11.7 °C 51.6 °F /  10.9 °C 30.5in /  1032.1hPa SSW 7.6mph /  12.2km/h 12.5mph /  20.1km/h 95% 0in /  0.0mm
12:42 52.5 °F /  11.4 °C 51.3 °F /  10.7 °C 30.5in /  1032.1hPa WSW 10.3mph /  16.6km/h 13.2mph /  21.2km/h 95% 0in /  0.0mm
12:47 52.5 °F /  11.4 °C 51.4 °F /  10.8 °C 30.5in /  1032.1hPa SW 7.6mph /  12.2km/h 15.4mph /  24.8km/h 96% 0in /  0.0mm
12:52 52.9 °F /  11.6 °C 51.6 °F /  10.9 °C 30.5in /  1032.1hPa SW 7.6mph /  12.2km/h 15.4mph /  24.8km/h 96% 0in /  0.0mm
12:57 53.4 °F /  11.9 °C 52.2 °F /  11.2 °C 30.5in /  1032.1hPa SW 12.3mph /  19.8km/h 12.3mph /  19.8km/h 95% 0in /  0.0mm
13:02 53.4 °F /  11.9 °C 52.2 °F /  11.2 °C 30.5in /  1032.1hPa SW 8.7mph /  14.0km/h 12.3mph /  19.8km/h 95% 0in /  0.0mm
13:07 53.4 °F /  11.9 °C 52.2 °F /  11.2 °C 30.4in /  1031.0hPa SW 7.8mph /  12.6km/h 10.7mph /  17.2km/h 95% 0in /  0.0mm
13:12 53.4 °F /  11.9 °C 52.2 °F /  11.2 °C 30.4in /  1031.0hPa West 12.8mph /  20.6km/h 14.3mph /  23.0km/h 95% 0in /  0.0mm
13:17 53.8 °F /  12.1 °C 52 °F /  11.1 °C 30.4in /  1031.0hPa WSW 11.2mph /  18.0km/h 15.4mph /  24.8km/h 94% 0in /  0.0mm
13:22 54 °F /  12.2 °C 52 °F /  11.1 °C 30.4in /  1031.0hPa West 17mph /  27.4km/h 17mph /  27.4km/h 93% 0in /  0.0mm
13:27 54 °F /  12.2 °C 51.4 °F /  10.8 °C 30.4in /  1031.0hPa WSW 13.9mph /  22.4km/h 17mph /  27.4km/h 91% 0in /  0.0mm
13:32 54 °F /  12.2 °C 51.3 °F /  10.7 °C 30.4in /  1031.0hPa WSW 7.8mph /  12.6km/h 16.3mph /  26.2km/h 90% 0in /  0.0mm
13:37 54.3 °F /  12.4 °C 51.4 °F /  10.8 °C 30.4in /  1031.0hPa SSW 10.3mph /  16.6km/h 15.4mph /  24.8km/h 90% 0in /  0.0mm
13:42 54.9 °F /  12.7 °C 52 °F /  11.1 °C 30.4in /  1031.0hPa WSW 9.4mph /  15.1km/h 12.3mph /  19.8km/h 90% 0in /  0.0mm
13:47 55 °F /  12.8 °C 52.2 °F /  11.2 °C 30.4in /  1031.0hPa WSW 9.8mph /  15.8km/h 13mph /  20.9km/h 90% 0in /  0.0mm
13:52 55.6 °F /  13.1 °C 52.3 °F /  11.3 °C 30.4in /  1031.0hPa SW 9.6mph /  15.4km/h 14.8mph /  23.8km/h 89% 0in /  0.0mm
13:57 55.8 °F /  13.2 °C 52.3 °F /  11.3 °C 30.4in /  1031.0hPa WSW 8.1mph /  13.0km/h 14.8mph /  23.8km/h 88% 0in /  0.0mm
14:02 56.3 °F /  13.5 °C 52.5 °F /  11.4 °C 30.4in /  1031.0hPa WSW 14.3mph /  23.0km/h 14.3mph /  23.0km/h 87% 0in /  0.0mm
14:07 56.1 °F /  13.4 °C 51.6 °F /  10.9 °C 30.4in /  1031.0hPa WSW 14.1mph /  22.7km/h 14.3mph /  23.0km/h 85% 0in /  0.0mm
14:12 56.1 °F /  13.4 °C 51.6 °F /  10.9 °C 30.4in /  1031.0hPa SW 12.5mph /  20.1km/h 14.1mph /  22.7km/h 85% 0in /  0.0mm
14:17 55.8 °F /  13.2 °C 50.7 °F /  10.4 °C 30.4in /  1031.0hPa West 9.8mph /  15.8km/h 14.1mph /  22.7km/h 83% 0in /  0.0mm
14:22 55.8 °F /  13.2 °C 51.1 °F /  10.6 °C 30.4in /  1031.0hPa WSW 10.1mph /  16.3km/h 12.8mph /  20.6km/h 84% 0in /  0.0mm
14:27 55.8 °F /  13.2 °C 51.1 °F /  10.6 °C 30.4in /  1031.0hPa WSW 10.7mph /  17.2km/h 13.2mph /  21.2km/h 84% 0in /  0.0mm
14:32 55.6 °F /  13.1 °C 50.5 °F /  10.3 °C 30.4in /  1031.0hPa WSW 12.8mph /  20.6km/h 14.5mph /  23.3km/h 83% 0in /  0.0mm
14:37 55.6 °F /  13.1 °C 50.7 °F /  10.4 °C 30.4in /  1031.0hPa WSW 12.3mph /  19.8km/h 14.5mph /  23.3km/h 84% 0in /  0.0mm
14:42 55.6 °F /  13.1 °C 50.7 °F /  10.4 °C 30.4in /  1031.0hPa WSW 10.5mph /  16.9km/h 12.8mph /  20.6km/h 84% 0in /  0.0mm
14:47 55.2 °F /  12.9 °C 50.2 °F /  10.1 °C 30.4in /  1031.0hPa WSW 7.8mph /  12.6km/h 13.2mph /  21.2km/h 83% 0in /  0.0mm
14:53 55.2 °F /  12.9 °C 50.5 °F /  10.3 °C 30.4in /  1030.0hPa WSW 8.7mph /  14.0km/h 13.2mph /  21.2km/h 84% 0in /  0.0mm
14:58 55.2 °F /  12.9 °C 50.5 °F /  10.3 °C 30.4in /  1030.0hPa SW 6.3mph /  10.1km/h 11.2mph /  18.0km/h 84% 0in /  0.0mm
15:03 55.6 °F /  13.1 °C 50.9 °F /  10.5 °C 30.4in /  1030.0hPa SSW 7.6mph /  12.2km/h 11.2mph /  18.0km/h 84% 0in /  0.0mm
15:08 55.8 °F /  13.2 °C 51.1 °F /  10.6 °C 30.4in /  1031.0hPa WSW 5.8mph /  9.3km/h 10.5mph /  16.9km/h 84% 0in /  0.0mm
15:13 56.1 °F /  13.4 °C 51.4 °F /  10.8 °C 30.4in /  1031.0hPa SW 10.1mph /  16.3km/h 10.5mph /  16.9km/h 84% 0in /  0.0mm
15:18 56.1 °F /  13.4 °C 50.7 °F /  10.4 °C 30.4in /  1031.0hPa SW 7.8mph /  12.6km/h 11mph /  17.7km/h 82% 0in /  0.0mm
15:23 56.1 °F /  13.4 °C 50.7 °F /  10.4 °C 30.4in /  1031.0hPa SW 11.4mph /  18.3km/h 14.1mph /  22.7km/h 82% 0in /  0.0mm
15:28 56.1 °F /  13.4 °C 50.7 °F /  10.4 °C 30.4in /  1031.0hPa SW 7.6mph /  12.2km/h 14.1mph /  22.7km/h 82% 0in /  0.0mm
15:33 56.1 °F /  13.4 °C 50.4 °F /  10.2 °C 30.4in /  1031.0hPa West 9.4mph /  15.1km/h 14.8mph /  23.8km/h 81% 0in /  0.0mm
15:38 55.9 °F /  13.3 °C 50.2 °F /  10.1 °C 30.4in /  1031.0hPa West 10.1mph /  16.3km/h 14.8mph /  23.8km/h 81% 0in /  0.0mm
15:43 55.8 °F /  13.2 °C 50.4 °F /  10.2 °C 30.4in /  1031.0hPa WSW 11mph /  17.7km/h 13.9mph /  22.4km/h 82% 0in /  0.0mm
15:48 55.6 °F /  13.1 °C 50.2 °F /  10.1 °C 30.4in /  1031.0hPa WSW 9.6mph /  15.4km/h 13.9mph /  22.4km/h 82% 0in /  0.0mm
15:53 55.2 °F /  12.9 °C 49.8 °F /  9.9 °C 30.4in /  1031.0hPa WSW 11.4mph /  18.3km/h 13mph /  20.9km/h 82% 0in /  0.0mm
15:58 55 °F /  12.8 °C 49.6 °F /  9.8 °C 30.4in /  1031.0hPa WSW 12.5mph /  20.1km/h 13.4mph /  21.6km/h 82% 0in /  0.0mm
16:03 55 °F /  12.8 °C 49.6 °F /  9.8 °C 30.4in /  1031.0hPa West 8.5mph /  13.7km/h 13.4mph /  21.6km/h 82% 0in /  0.0mm
16:08 54.3 °F /  12.4 °C 48.9 °F /  9.4 °C 30.4in /  1031.0hPa WSW 12.3mph /  19.8km/h 15.4mph /  24.8km/h 82% 0in /  0.0mm
16:09 54.1 °F /  12.3 °C 48.7 °F /  9.3 °C 30.4in /  1031.0hPa WSW 12.5mph /  20.1km/h 15.4mph /  24.8km/h 82% 0in /  0.0mm
16:14 54 °F /  12.2 °C 48.9 °F /  9.4 °C 30.4in /  1031.0hPa WSW 12.5mph /  20.1km/h 15.4mph /  24.8km/h 83% 0in /  0.0mm
16:19 53.8 °F /  12.1 °C 48.7 °F /  9.3 °C 30.4in /  1031.0hPa West 12.5mph /  20.1km/h 14.1mph /  22.7km/h 83% 0in /  0.0mm
16:24 53.4 °F /  11.9 °C 48.7 °F /  9.3 °C 30.4in /  1031.0hPa WSW 10.7mph /  17.2km/h 14.1mph /  22.7km/h 84% 0in /  0.0mm
16:29 53.2 °F /  11.8 °C 48.9 °F /  9.4 °C 30.4in /  1031.0hPa WSW 8.5mph /  13.7km/h 14.8mph /  23.8km/h 85% 0in /  0.0mm
16:34 53.1 °F /  11.7 °C 48.9 °F /  9.4 °C 30.4in /  1031.0hPa WSW 10.5mph /  16.9km/h 14.8mph /  23.8km/h 86% 0in /  0.0mm
16:39 53.1 °F /  11.7 °C 48.9 °F /  9.4 °C 30.4in /  1030.0hPa WSW 11mph /  17.7km/h 13mph /  20.9km/h 86% 0in /  0.0mm
16:44 52.9 °F /  11.6 °C 48.7 °F /  9.3 °C 30.4in /  1030.0hPa WSW 12.8mph /  20.6km/h 13.2mph /  21.2km/h 86% 0in /  0.0mm
16:49 52.5 °F /  11.4 °C 48.9 °F /  9.4 °C 30.4in /  1030.0hPa WSW 13.2mph /  21.2km/h 14.5mph /  23.3km/h 87% 0in /  0.0mm
16:54 52.3 °F /  11.3 °C 48.6 °F /  9.2 °C 30.4in /  1031.0hPa WSW 9.8mph /  15.8km/h 14.5mph /  23.3km/h 87% 0in /  0.0mm
16:59 52.3 °F /  11.3 °C 48.6 °F /  9.2 °C 30.4in /  1031.0hPa West 9.2mph /  14.8km/h 13.2mph /  21.2km/h 87% 0in /  0.0mm
17:04 52.2 °F /  11.2 °C 48.7 °F /  9.3 °C 30.4in /  1031.0hPa WSW 7.8mph /  12.6km/h 12.8mph /  20.6km/h 88% 0in /  0.0mm
17:09 52.2 °F /  11.2 °C 48.7 °F /  9.3 °C 30.4in /  1031.0hPa West 7.8mph /  12.6km/h 12.5mph /  20.1km/h 88% 0in /  0.0mm
17:14 52 °F /  11.1 °C 48.7 °F /  9.3 °C 30.4in /  1031.0hPa West 9.8mph /  15.8km/h 13mph /  20.9km/h 89% 0in /  0.0mm
17:19 52 °F /  11.1 °C 48.7 °F /  9.3 °C 30.4in /  1031.0hPa West 15.4mph /  24.8km/h 15.4mph /  24.8km/h 89% 0in /  0.0mm
17:24 52 °F /  11.1 °C 49.1 °F /  9.5 °C 30.4in /  1031.0hPa WSW 8.1mph /  13.0km/h 15.4mph /  24.8km/h 90% 0in /  0.0mm
17:29 52 °F /  11.1 °C 49.1 °F /  9.5 °C 30.4in /  1031.0hPa West 11.4mph /  18.3km/h 15.4mph /  24.8km/h 90% 0in /  0.0mm
17:34 51.8 °F /  11.0 °C 48.9 °F /  9.4 °C 30.4in /  1031.0hPa WNW 7.6mph /  12.2km/h 13.2mph /  21.2km/h 90% 0in /  0.0mm
17:39 51.8 °F /  11.0 °C 48.9 °F /  9.4 °C 30.4in /  1031.0hPa West 10.7mph /  17.2km/h 13.2mph /  21.2km/h 90% 0in /  0.0mm
17:44 51.8 °F /  11.0 °C 48.9 °F /  9.4 °C 30.4in /  1031.0hPa West 5.6mph /  9.0km/h 12.8mph /  20.6km/h 90% 0in /  0.0mm
17:49 51.6 °F /  10.9 °C 48.9 °F /  9.4 °C 30.4in /  1031.0hPa West 10.5mph /  16.9km/h 12.8mph /  20.6km/h 91% 0in /  0.0mm
17:54 51.6 °F /  10.9 °C 48.9 °F /  9.4 °C 30.4in /  1031.0hPa West 8.1mph /  13.0km/h 12.1mph /  19.5km/h 91% 0in /  0.0mm
17:59 51.6 °F /  10.9 °C 48.9 °F /  9.4 °C 30.4in /  1031.0hPa West 8.5mph /  13.7km/h 12.1mph /  19.5km/h 91% 0in /  0.0mm
18:04 51.6 °F /  10.9 °C 48.9 °F /  9.4 °C 30.4in /  1031.0hPa West 10.5mph /  16.9km/h 14.5mph /  23.3km/h 91% 0in /  0.0mm
18:05 51.4 °F /  10.8 °C 48.9 °F /  9.4 °C 30.4in /  1031.0hPa West 10.1mph /  16.3km/h 14.5mph /  23.3km/h 91% 0in /  0.0mm
18:10 51.4 °F /  10.8 °C 49.3 °F /  9.6 °C 30.5in /  1032.1hPa West 8.1mph /  13.0km/h 14.5mph /  23.3km/h 92% 0in /  0.0mm
18:16 51.4 °F /  10.8 °C 49.3 °F /  9.6 °C 30.5in /  1032.1hPa WSW 5.4mph /  8.7km/h 12.1mph /  19.5km/h 92% 0in /  0.0mm
18:21 51.4 °F /  10.8 °C 49.3 °F /  9.6 °C 30.5in /  1032.1hPa WSW 7.2mph /  11.6km/h 12.1mph /  19.5km/h 92% 0in /  0.0mm
18:26 51.3 °F /  10.7 °C 48.9 °F /  9.4 °C 30.4in /  1031.0hPa WSW 7.6mph /  12.2km/h 10.1mph /  16.3km/h 92% 0in /  0.0mm
18:31 51.3 °F /  10.7 °C 48.9 °F /  9.4 °C 30.4in /  1031.0hPa WSW 6.3mph /  10.1km/h 10.1mph /  16.3km/h 92% 0in /  0.0mm
18:36 51.3 °F /  10.7 °C 48.9 °F /  9.4 °C 30.4in /  1031.0hPa WSW 7.6mph /  12.2km/h 10.1mph /  16.3km/h 92% 0in /  0.0mm
18:41 51.3 °F /  10.7 °C 48.9 °F /  9.4 °C 30.4in /  1031.0hPa West 8.7mph /  14.0km/h 10.7mph /  17.2km/h 92% 0in /  0.0mm
18:46 51.1 °F /  10.6 °C 49.1 °F /  9.5 °C 30.4in /  1031.0hPa West 6.5mph /  10.5km/h 10.7mph /  17.2km/h 93% 0in /  0.0mm
18:51 51.1 °F /  10.6 °C 49.1 °F /  9.5 °C 30.4in /  1031.0hPa West 7.6mph /  12.2km/h 10.3mph /  16.6km/h 93% 0in /  0.0mm
18:56 51.1 °F /  10.6 °C 49.1 °F /  9.5 °C 30.5in /  1032.1hPa West 6.5mph /  10.5km/h 10.3mph /  16.6km/h 93% 0in /  0.0mm
19:01 50.9 °F /  10.5 °C 48.9 °F /  9.4 °C 30.5in /  1032.1hPa West 7.6mph /  12.2km/h 8.7mph /  14.0km/h 93% 0in /  0.0mm
19:06 50.9 °F /  10.5 °C 48.9 °F /  9.4 °C 30.5in /  1032.1hPa WSW 5.4mph /  8.7km/h 8.7mph /  14.0km/h 93% 0in /  0.0mm
19:11 50.9 °F /  10.5 °C 48.9 °F /  9.4 °C 30.5in /  1032.1hPa WSW 2.7mph /  4.3km/h 7.8mph /  12.6km/h 93% 0in /  0.0mm
19:16 50.9 °F /  10.5 °C 48.9 °F /  9.4 °C 30.5in /  1032.1hPa WSW 2.9mph /  4.7km/h 5.8mph /  9.3km/h 93% 0in /  0.0mm
19:21 50.7 °F /  10.4 °C 48.7 °F /  9.3 °C 30.5in /  1032.1hPa WSW 2.9mph /  4.7km/h 5.4mph /  8.7km/h 93% 0in /  0.0mm
19:26 50.7 °F /  10.4 °C 48.7 °F /  9.3 °C 30.5in /  1032.1hPa WSW 4.9mph /  7.9km/h 6.5mph /  10.5km/h 93% 0in /  0.0mm
19:31 50.5 °F /  10.3 °C 48.6 °F /  9.2 °C 30.5in /  1032.1hPa SW 4.5mph /  7.2km/h 6.5mph /  10.5km/h 93% 0in /  0.0mm
19:36 50.5 °F /  10.3 °C 48.6 °F /  9.2 °C 30.5in /  1032.1hPa West 5.6mph /  9.0km/h 6.5mph /  10.5km/h 93% 0in /  0.0mm
19:41 50.5 °F /  10.3 °C 48.6 °F /  9.2 °C 30.5in /  1032.1hPa WSW 3.4mph /  5.5km/h 6.7mph /  10.8km/h 93% 0in /  0.0mm
19:46 50.5 °F /  10.3 °C 48.6 °F /  9.2 °C 30.5in /  1032.1hPa WSW 5.8mph /  9.3km/h 7.6mph /  12.2km/h 93% 0in /  0.0mm
19:51 50.5 °F /  10.3 °C 48.6 °F /  9.2 °C 30.5in /  1032.1hPa WSW 4.3mph /  6.9km/h 7.6mph /  12.2km/h 93% 0in /  0.0mm
19:56 50.5 °F /  10.3 °C 48.6 °F /  9.2 °C 30.5in /  1032.1hPa West 5.4mph /  8.7km/h 6.5mph /  10.5km/h 93% 0in /  0.0mm
20:01 50.4 °F /  10.2 °C 48.4 °F /  9.1 °C 30.5in /  1032.1hPa WSW 4.7mph /  7.6km/h 6mph /  9.7km/h 93% 0in /  0.0mm
20:06 50.4 °F /  10.2 °C 48.4 °F /  9.1 °C 30.5in /  1032.1hPa West 4.3mph /  6.9km/h 6.5mph /  10.5km/h 93% 0in /  0.0mm
20:11 50.4 °F /  10.2 °C 48.4 °F /  9.1 °C 30.5in /  1032.1hPa Calm   6.5mph /  10.5km/h 93% 0in /  0.0mm
20:16 50.4 °F /  10.2 °C 48.4 °F /  9.1 °C 30.5in /  1032.1hPa WSW 4.3mph /  6.9km/h 4.3mph /  6.9km/h 93% 0in /  0.0mm
20:21 50.4 °F /  10.2 °C 48.4 °F /  9.1 °C 30.5in /  1032.1hPa Calm   4.3mph /  6.9km/h 93% 0in /  0.0mm
20:26 50.2 °F /  10.1 °C 48.6 °F /  9.2 °C 30.5in /  1032.1hPa WSW 6mph /  9.7km/h 6mph /  9.7km/h 94% 0in /  0.0mm
20:31 50.4 °F /  10.2 °C 48.7 °F /  9.3 °C 30.5in /  1032.1hPa Calm   6mph /  9.7km/h 94% 0in /  0.0mm
20:36 50.2 °F /  10.1 °C 48.6 °F /  9.2 °C 30.5in /  1032.1hPa WSW 4.3mph /  6.9km/h 5.8mph /  9.3km/h 94% 0in /  0.0mm
20:41 50.2 °F /  10.1 °C 48.6 °F /  9.2 °C 30.5in /  1033.1hPa West 4.9mph /  7.9km/h 5.8mph /  9.3km/h 94% 0in /  0.0mm
20:46 50.2 °F /  10.1 °C 48.6 °F /  9.2 °C 30.5in /  1033.1hPa Calm   5.8mph /  9.3km/h 94% 0in /  0.0mm
20:51 50.2 °F /  10.1 °C 48.6 °F /  9.2 °C 30.5in /  1033.1hPa West 3.4mph /  5.5km/h 4.9mph /  7.9km/h 94% 0in /  0.0mm
20:56 50.2 °F /  10.1 °C 48.6 °F /  9.2 °C 30.5in /  1033.1hPa WSW 4.9mph /  7.9km/h 4.9mph /  7.9km/h 94% 0in /  0.0mm
21:01 50 °F /  10.0 °C 48.4 °F /  9.1 °C 30.5in /  1033.1hPa Calm   4.9mph /  7.9km/h 94% 0in /  0.0mm
21:06 50 °F /  10.0 °C 48.4 °F /  9.1 °C 30.5in /  1033.1hPa WSW 4mph /  6.4km/h 5.6mph /  9.0km/h 94% 0in /  0.0mm
21:11 50 °F /  10.0 °C 48.4 °F /  9.1 °C 30.5in /  1033.1hPa WSW 3.4mph /  5.5km/h 5.6mph /  9.0km/h 94% 0in /  0.0mm
21:16 50 °F /  10.0 °C 48.4 °F /  9.1 °C 30.5in /  1033.1hPa WSW 3.4mph /  5.5km/h 5.4mph /  8.7km/h 94% 0in /  0.0mm
21:21 50 °F /  10.0 °C 48.4 °F /  9.1 °C 30.5in /  1033.1hPa WSW 5.4mph /  8.7km/h 6.3mph /  10.1km/h 94% 0in /  0.0mm
21:26 50 °F /  10.0 °C 48.4 °F /  9.1 °C 30.5in /  1033.1hPa WSW 7.2mph /  11.6km/h 7.2mph /  11.6km/h 94% 0in /  0.0mm
21:31 50 °F /  10.0 °C 48.6 °F /  9.2 °C 30.5in /  1033.1hPa WSW 5.6mph /  9.0km/h 7.8mph /  12.6km/h 95% 0in /  0.0mm
21:36 50 °F /  10.0 °C 48.6 °F /  9.2 °C 30.5in /  1033.1hPa West 6mph /  9.7km/h 7.8mph /  12.6km/h 95% 0in /  0.0mm
21:41 50 °F /  10.0 °C 48.6 °F /  9.2 °C 30.5in /  1033.1hPa WSW 4.9mph /  7.9km/h 7.2mph /  11.6km/h 95% 0in /  0.0mm
21:46 50 °F /  10.0 °C 48.6 °F /  9.2 °C 30.5in /  1033.1hPa WSW 6mph /  9.7km/h 7.4mph /  11.9km/h 95% 0in /  0.0mm
21:51 50 °F /  10.0 °C 48.6 °F /  9.2 °C 30.5in /  1033.1hPa WSW 5.6mph /  9.0km/h 8.9mph /  14.3km/h 95% 0in /  0.0mm
21:57 50.2 °F /  10.1 °C 48.7 °F /  9.3 °C 30.5in /  1033.1hPa WSW 8.7mph /  14.0km/h 8.9mph /  14.3km/h 95% 0in /  0.0mm
22:02 50.2 °F /  10.1 °C 48.7 °F /  9.3 °C 30.5in /  1033.1hPa West 6.3mph /  10.1km/h 8.7mph /  14.0km/h 95% 0in /  0.0mm
22:07 50.2 °F /  10.1 °C 48.7 °F /  9.3 °C 30.5in /  1033.1hPa West 6.3mph /  10.1km/h 9.6mph /  15.4km/h 95% 0in /  0.0mm
22:12 50.2 °F /  10.1 °C 48.7 °F /  9.3 °C 30.5in /  1033.1hPa WSW 6.5mph /  10.5km/h 9.6mph /  15.4km/h 95% 0in /  0.0mm
22:17 50.2 °F /  10.1 °C 48.7 °F /  9.3 °C 30.5in /  1033.1hPa WSW 7.8mph /  12.6km/h 9.6mph /  15.4km/h 95% 0in /  0.0mm
22:22 50.2 °F /  10.1 °C 48.7 °F /  9.3 °C 30.5in /  1033.1hPa WSW 5.4mph /  8.7km/h 8.9mph /  14.3km/h 95% 0in /  0.0mm
22:27 50.2 °F /  10.1 °C 49.1 °F /  9.5 °C 30.5in /  1033.1hPa West 8.7mph /  14.0km/h 8.9mph /  14.3km/h 96% 0in /  0.0mm
22:32 50.2 °F /  10.1 °C 49.1 °F /  9.5 °C 30.5in /  1033.1hPa WSW 6.5mph /  10.5km/h 8.7mph /  14.0km/h 96% 0in /  0.0mm
22:37 50.2 °F /  10.1 °C 49.1 °F /  9.5 °C 30.5in /  1033.1hPa West 5.6mph /  9.0km/h 8.7mph /  14.0km/h 96% 0in /  0.0mm
22:42 50.2 °F /  10.1 °C 49.1 °F /  9.5 °C 30.5in /  1033.1hPa WSW 6mph /  9.7km/h 8.7mph /  14.0km/h 96% 0in /  0.0mm
22:47 50.2 °F /  10.1 °C 49.1 °F /  9.5 °C 30.5in /  1033.1hPa West 5.8mph /  9.3km/h 7.6mph /  12.2km/h 96% 0in /  0.0mm
22:52 50.2 °F /  10.1 °C 49.1 °F /  9.5 °C 30.5in /  1033.1hPa West 7.6mph /  12.2km/h 7.6mph /  12.2km/h 96% 0in /  0.0mm
22:57 50.2 °F /  10.1 °C 49.1 °F /  9.5 °C 30.5in /  1033.1hPa West 7.4mph /  11.9km/h 8.5mph /  13.7km/h 96% 0in /  0.0mm
23:02 50 °F /  10.0 °C 48.9 °F /  9.4 °C 30.5in /  1033.1hPa WSW 5.6mph /  9.0km/h 8.7mph /  14.0km/h 96% 0in /  0.0mm
23:07 50 °F /  10.0 °C 48.9 °F /  9.4 °C 30.5in /  1033.1hPa WSW 4.9mph /  7.9km/h 8.7mph /  14.0km/h 96% 0in /  0.0mm
23:12 50 °F /  10.0 °C 48.9 °F /  9.4 °C 30.5in /  1033.1hPa West 4.9mph /  7.9km/h 6.5mph /  10.5km/h 96% 0in /  0.0mm
23:17 50 °F /  10.0 °C 48.9 °F /  9.4 °C 30.5in /  1033.1hPa WSW 6.3mph /  10.1km/h 8.1mph /  13.0km/h 96% 0in /  0.0mm
23:22 50.2 °F /  10.1 °C 49.1 °F /  9.5 °C 30.5in /  1033.1hPa WSW 7.2mph /  11.6km/h 8.1mph /  13.0km/h 96% 0in /  0.0mm
23:27 50.2 °F /  10.1 °C 49.1 °F /  9.5 °C 30.5in /  1032.1hPa WSW 5.4mph /  8.7km/h 7.8mph /  12.6km/h 96% 0in /  0.0mm
23:32 50.2 °F /  10.1 °C 49.1 °F /  9.5 °C 30.5in /  1032.1hPa WSW 5.8mph /  9.3km/h 7.8mph /  12.6km/h 96% 0in /  0.0mm
23:37 50.2 °F /  10.1 °C 49.1 °F /  9.5 °C 30.5in /  1032.1hPa West 5.4mph /  8.7km/h 7.8mph /  12.6km/h 96% 0in /  0.0mm
23:42 50.2 °F /  10.1 °C 49.1 °F /  9.5 °C 30.5in /  1032.1hPa WSW 7.6mph /  12.2km/h 9.2mph /  14.8km/h 96% 0in /  0.0mm
23:47 50.2 °F /  10.1 °C 49.1 °F /  9.5 °C 30.5in /  1032.1hPa WSW 5.6mph /  9.0km/h 9.2mph /  14.8km/h 96% 0in /  0.0mm
23:52 50 °F /  10.0 °C 48.9 °F /  9.4 °C 30.5in /  1032.1hPa WSW 4.3mph /  6.9km/h 7.6mph /  12.2km/h 96% 0in /  0.0mm
23:57 50 °F /  10.0 °C 48.9 °F /  9.4 °C 30.5in /  1032.1hPa SW 3.6mph /  5.8km/h 7.4mph /  11.9km/h 96% 0in /  0.0mm
Données Historique de Météo Turbie

Mise a jour : 21/05/2018 16:46:12
Généré par Cumulus 1.9.4 (1099)